createdAt,value
2019-04-26T00:03:48.635Z,13.30
2019-04-26T00:07:52.164Z,13.50
2019-04-26T00:11:59.866Z,13.50
2019-04-26T00:16:21.159Z,13.50
2019-04-26T00:20:24.179Z,13.40
2019-04-26T00:24:28.449Z,13.50
2019-04-26T00:28:31.707Z,13.40
2019-04-26T00:32:34.916Z,13.30
2019-04-26T00:36:37.916Z,13.10
2019-04-26T00:40:42.611Z,13.20
2019-04-26T00:44:46.040Z,13.10
2019-04-26T00:48:51.643Z,13.20
2019-04-26T00:52:55.451Z,13.00
2019-04-26T00:56:59.816Z,12.90
2019-04-26T01:01:03.220Z,12.90
2019-04-26T01:05:06.900Z,12.70
2019-04-26T01:09:09.948Z,12.70
2019-04-26T01:13:12.965Z,12.70
2019-04-26T01:17:17.107Z,12.70
2019-04-26T01:21:24.740Z,12.70
2019-04-26T01:25:54.082Z,12.70
2019-04-26T01:30:00.897Z,12.70
2019-04-26T01:34:03.999Z,12.70
2019-04-26T01:38:10.835Z,12.70
2019-04-26T01:42:34.529Z,12.60
2019-04-26T01:46:39.941Z,12.40
2019-04-26T01:50:43.161Z,12.50
2019-04-26T01:54:46.209Z,12.40
2019-04-26T01:58:49.491Z,12.40
2019-04-26T02:02:54.535Z,12.40
2019-04-26T02:06:57.556Z,12.40
2019-04-26T02:11:00.672Z,12.50
2019-04-26T02:15:05.472Z,12.40
2019-04-26T02:19:08.491Z,12.20
2019-04-26T02:23:30.079Z,12.10
2019-04-26T02:27:34.545Z,12.30
2019-04-26T02:31:40.254Z,12.30
2019-04-26T02:35:43.558Z,12.40
2019-04-26T02:39:47.369Z,12.20
2019-04-26T02:43:55.076Z,12.40
2019-04-26T02:48:15.572Z,12.50
2019-04-26T02:52:35.909Z,12.60
2019-04-26T02:56:42.097Z,12.60
2019-04-26T03:00:45.869Z,12.50
2019-04-26T03:04:51.140Z,12.50
2019-04-26T03:08:58.029Z,12.70
2019-04-26T03:13:03.888Z,12.70
2019-04-26T03:17:17.521Z,12.70
2019-04-26T03:21:37.695Z,12.50
2019-04-26T03:26:00.075Z,12.80
2019-04-26T03:30:22.302Z,12.80
2019-04-26T03:34:29.221Z,12.80
2019-04-26T03:38:47.012Z,12.70
2019-04-26T03:43:05.413Z,12.70
2019-04-26T03:47:13.692Z,12.70
2019-04-26T03:51:39.119Z,12.70
2019-04-26T03:55:51.846Z,12.80
2019-04-26T04:00:03.138Z,12.80
2019-04-26T04:04:26.293Z,12.80
2019-04-26T04:08:57.770Z,12.80
2019-04-26T04:13:38.961Z,12.50
2019-04-26T04:17:48.219Z,12.60
2019-04-26T04:22:02.167Z,12.50
2019-04-26T04:26:06.146Z,12.50
2019-04-26T04:30:31.406Z,12.70
2019-04-26T04:34:42.114Z,12.70
2019-04-26T04:38:48.422Z,12.70
2019-04-26T04:43:05.106Z,12.80
2019-04-26T04:47:31.317Z,12.90
2019-04-26T04:51:46.915Z,13.00
2019-04-26T04:56:06.181Z,12.90
2019-04-26T05:00:12.906Z,12.90
2019-04-26T05:04:29.871Z,12.90
2019-04-26T05:08:41.053Z,12.90
2019-04-26T05:12:58.059Z,12.90
2019-04-26T05:17:35.012Z,12.80
2019-04-26T05:22:00.344Z,12.80
2019-04-26T05:26:33.407Z,12.60
2019-04-26T05:31:08.933Z,12.70
2019-04-26T05:35:51.099Z,12.50
2019-04-26T05:40:22.425Z,12.70
2019-04-26T05:45:15.711Z,12.60
2019-04-26T05:49:46.697Z,12.70
2019-04-26T05:54:09.184Z,12.60
2019-04-26T05:58:24.927Z,12.60
2019-04-26T06:02:45.927Z,12.70
2019-04-26T06:06:55.108Z,12.50
2019-04-26T06:11:09.720Z,12.30
2019-04-26T06:15:33.033Z,12.20
2019-04-26T06:19:44.721Z,12.30
2019-04-26T06:24:09.895Z,12.20
2019-04-26T06:28:33.065Z,12.40
2019-04-26T06:33:00.372Z,12.30
2019-04-26T06:37:08.367Z,12.30
2019-04-26T06:41:24.032Z,12.50
2019-04-26T06:45:44.349Z,12.50
2019-04-26T06:50:08.016Z,12.60
2019-04-26T06:54:15.956Z,12.60
2019-04-26T06:58:45.150Z,12.60
2019-04-26T07:03:13.088Z,12.60
2019-04-26T07:07:32.072Z,12.50
2019-04-26T07:12:07.769Z,12.40
2019-04-26T07:16:43.599Z,12.50
2019-04-26T07:21:12.960Z,12.40
2019-04-26T07:25:38.697Z,12.40
2019-04-26T07:29:57.906Z,12.50
2019-04-26T07:34:21.239Z,12.30
2019-04-26T07:39:15.572Z,12.20
2019-04-26T07:43:35.236Z,12.40
2019-04-26T07:48:16.691Z,12.60
2019-04-26T07:52:44.011Z,12.60
2019-04-26T07:57:37.656Z,12.60
2019-04-26T08:01:58.758Z,12.80
2019-04-26T08:06:13.692Z,12.80
2019-04-26T08:10:19.708Z,13.00
2019-04-26T08:14:37.732Z,13.10
2019-04-26T08:18:49.128Z,13.30
2019-04-26T08:23:02.818Z,13.10
2019-04-26T08:27:23.346Z,13.00
2019-04-26T08:31:25.876Z,13.30
2019-04-26T08:35:31.973Z,13.50
2019-04-26T08:39:45.558Z,13.40
2019-04-26T08:43:45.622Z,13.40
2019-04-26T08:48:07.908Z,13.60
2019-04-26T08:52:16.247Z,13.80
2019-04-26T08:56:35.458Z,13.80
2019-04-26T09:00:48.019Z,13.60
2019-04-26T09:05:02.539Z,13.70
2019-04-26T09:09:19.807Z,13.70
2019-04-26T09:13:26.921Z,13.90
2019-04-26T09:17:32.201Z,13.90
2019-04-26T09:21:36.852Z,13.90
2019-04-26T09:25:41.768Z,14.10
2019-04-26T09:29:53.007Z,14.10
2019-04-26T09:33:57.923Z,13.80
2019-04-26T09:38:01.056Z,13.90
2019-04-26T09:42:09.594Z,15.00
2019-04-26T09:46:12.908Z,14.80
2019-04-26T09:50:20.346Z,14.50
2019-04-26T09:54:23.357Z,14.40
2019-04-26T09:58:26.839Z,14.20
2019-04-26T10:02:33.898Z,14.30
2019-04-26T10:06:37.227Z,14.20
2019-04-26T10:10:40.293Z,14.10
2019-04-26T10:14:46.549Z,14.20
2019-04-26T10:18:54.433Z,14.20
2019-04-26T10:22:56.679Z,13.80
2019-04-26T10:27:03.399Z,14.00
2019-04-26T10:31:05.625Z,13.90
2019-04-26T10:35:08.936Z,13.80
2019-04-26T10:39:12.188Z,13.80
2019-04-26T10:43:15.329Z,13.90
2019-04-26T10:47:18.443Z,14.00
2019-04-26T10:51:29.375Z,14.10
2019-04-26T10:55:37.054Z,14.40
2019-04-26T10:59:50.863Z,14.30
2019-04-26T11:03:54.326Z,14.30
2019-04-26T11:07:57.974Z,14.50
2019-04-26T11:12:01.113Z,14.70
2019-04-26T11:16:07.089Z,14.70
2019-04-26T11:20:11.900Z,15.10
2019-04-26T11:24:19.031Z,15.00
2019-04-26T11:28:21.289Z,14.90
2019-04-26T11:32:24.904Z,14.90
2019-04-26T11:36:27.922Z,14.90
2019-04-26T11:40:30.920Z,15.00
2019-04-26T11:44:33.997Z,15.10
2019-04-26T11:48:37.099Z,15.30
2019-04-26T11:52:40.105Z,15.20
2019-04-26T11:56:43.103Z,15.40
2019-04-26T12:00:48.096Z,15.30
2019-04-26T12:04:59.759Z,15.10
2019-04-26T12:09:23.292Z,15.40
2019-04-26T12:13:26.667Z,15.50
2019-04-26T12:17:31.151Z,14.90
2019-04-26T12:21:35.106Z,15.10
2019-04-26T12:25:38.890Z,15.10
2019-04-26T12:29:44.190Z,15.00
2019-04-26T12:33:48.172Z,15.30
2019-04-26T12:37:54.708Z,15.30
2019-04-26T12:41:56.241Z,15.30
2019-04-26T12:46:01.126Z,15.30
2019-04-26T12:50:05.128Z,15.00
2019-04-26T12:54:09.870Z,15.20
2019-04-26T12:58:15.107Z,15.40
2019-04-26T13:02:20.936Z,15.60
2019-04-26T13:06:27.766Z,15.70
2019-04-26T13:10:36.917Z,15.60
2019-04-26T13:14:58.648Z,15.50
2019-04-26T13:19:01.657Z,15.50
2019-04-26T13:23:04.683Z,15.40
2019-04-26T13:27:10.696Z,15.70
2019-04-26T13:31:12.633Z,15.40
2019-04-26T13:35:15.643Z,15.70
2019-04-26T13:39:22.325Z,15.90
2019-04-26T13:43:27.090Z,16.20
2019-04-26T13:47:45.657Z,16.50
2019-04-26T13:51:48.772Z,16.90
2019-04-26T13:55:51.789Z,17.00
2019-04-26T13:59:54.826Z,17.50
2019-04-26T14:03:58.052Z,17.70
2019-04-26T14:08:01.582Z,17.60
2019-04-26T14:12:17.921Z,17.30
2019-04-26T14:16:10.004Z,17.10
2019-04-26T14:20:13.322Z,17.00
2019-04-26T14:24:30.168Z,16.80
2019-04-26T14:28:33.227Z,16.60
2019-04-26T14:32:36.312Z,16.60
2019-04-26T14:36:39.322Z,16.10
2019-04-26T14:40:43.056Z,16.20
2019-04-26T14:44:49.492Z,15.90
2019-04-26T14:49:01.793Z,16.00
2019-04-26T14:52:58.174Z,15.80
2019-04-26T14:57:07.328Z,15.60
2019-04-26T15:01:28.448Z,15.60
2019-04-26T15:05:48.382Z,15.80
2019-04-26T15:09:52.955Z,15.80
2019-04-26T15:13:56.639Z,15.70
2019-04-26T15:18:00.487Z,15.50
2019-04-26T15:22:10.094Z,15.20
2019-04-26T15:26:08.815Z,15.30
2019-04-26T15:30:13.347Z,15.40
2019-04-26T15:34:19.318Z,15.30
2019-04-26T15:38:22.079Z,15.40
2019-04-26T15:42:39.233Z,15.30
2019-04-26T15:46:48.655Z,15.10
2019-04-26T15:50:53.964Z,15.30
2019-04-26T15:54:58.913Z,15.20
2019-04-26T15:59:02.613Z,15.40
2019-04-26T16:03:07.426Z,15.90
2019-04-26T16:07:16.653Z,15.90
2019-04-26T16:11:16.010Z,16.20
2019-04-26T16:15:19.961Z,16.20
2019-04-26T16:19:26.692Z,16.10
2019-04-26T16:23:38.456Z,16.30
2019-04-26T16:27:34.580Z,16.30
2019-04-26T16:31:42.079Z,16.20
2019-04-26T16:35:44.550Z,16.00
2019-04-26T16:39:48.651Z,16.00
2019-04-26T16:43:53.386Z,16.00
2019-04-26T16:47:58.932Z,16.00
2019-04-26T16:52:06.837Z,15.80
2019-04-26T16:56:07.301Z,15.50
2019-04-26T17:00:10.612Z,15.20
2019-04-26T17:04:14.312Z,15.20
2019-04-26T17:08:19.225Z,15.20
2019-04-26T17:12:24.649Z,15.20
2019-04-26T17:16:29.696Z,15.30
2019-04-26T17:20:34.018Z,14.90
2019-04-26T17:24:55.489Z,14.70
2019-04-26T17:28:58.633Z,15.00
2019-04-26T17:33:02.960Z,15.00
2019-04-26T17:37:11.758Z,15.00
2019-04-26T17:41:13.631Z,15.10
2019-04-26T17:45:16.261Z,15.10
2019-04-26T17:49:21.474Z,15.20
2019-04-26T17:53:28.825Z,15.10
2019-04-26T17:57:34.686Z,15.10
2019-04-26T18:01:47.516Z,15.00
2019-04-26T18:05:55.942Z,14.80
2019-04-26T18:09:46.764Z,14.60
2019-04-26T18:13:51.212Z,14.30
2019-04-26T18:18:14.353Z,13.80
2019-04-26T18:22:18.531Z,13.30
2019-04-26T18:26:22.540Z,13.60
2019-04-26T18:30:26.920Z,13.70
2019-04-26T18:34:30.560Z,13.70
2019-04-26T18:38:35.923Z,13.80
2019-04-26T18:42:41.992Z,13.60
2019-04-26T18:46:47.267Z,13.40
2019-04-26T18:50:50.452Z,13.20
2019-04-26T18:54:55.623Z,13.40
2019-04-26T18:58:58.760Z,13.50
2019-04-26T19:03:02.558Z,13.50
2019-04-26T19:07:05.681Z,13.00
2019-04-26T19:11:11.665Z,13.10
2019-04-26T19:15:33.652Z,12.90
2019-04-26T19:19:53.698Z,12.90
2019-04-26T19:24:05.828Z,12.60
2019-04-26T19:28:04.466Z,12.60
2019-04-26T19:32:08.020Z,12.60
2019-04-26T19:36:13.594Z,12.60
2019-04-26T19:40:16.219Z,12.80
2019-04-26T19:44:22.144Z,12.90
2019-04-26T19:48:32.187Z,12.90
2019-04-26T19:52:42.514Z,12.90
2019-04-26T19:56:46.950Z,13.00
2019-04-26T20:00:50.140Z,13.00
2019-04-26T20:04:53.255Z,13.00
2019-04-26T20:08:56.292Z,12.90
2019-04-26T20:12:59.369Z,12.90
2019-04-26T20:17:04.145Z,12.90
2019-04-26T20:21:12.590Z,12.90
2019-04-26T20:25:12.347Z,12.90
2019-04-26T20:29:15.423Z,12.80
2019-04-26T20:33:18.525Z,12.70
2019-04-26T20:37:25.617Z,12.70
2019-04-26T20:41:27.770Z,12.50
2019-04-26T20:45:39.810Z,12.50
2019-04-26T20:49:47.400Z,12.40
2019-04-26T20:53:43.469Z,12.50
2019-04-26T20:57:45.880Z,12.50
2019-04-26T21:02:02.696Z,12.50
2019-04-26T21:05:59.187Z,12.60
2019-04-26T21:09:58.967Z,12.50
2019-04-26T21:14:07.460Z,12.70
2019-04-26T21:18:08.370Z,12.60
2019-04-26T21:22:12.284Z,12.60
2019-04-26T21:26:34.071Z,12.50
2019-04-26T21:30:55.849Z,12.60
2019-04-26T21:35:00.665Z,12.40
2019-04-26T21:39:23.801Z,12.30
2019-04-26T21:43:29.537Z,12.50
2019-04-26T21:47:32.939Z,12.30
2019-04-26T21:51:36.690Z,12.50
2019-04-26T21:55:39.703Z,12.30
2019-04-26T21:59:44.228Z,12.50
2019-04-26T22:03:54.064Z,12.40
2019-04-26T22:07:53.453Z,12.50
2019-04-26T22:11:56.853Z,12.30
2019-04-26T22:16:34.154Z,12.50
2019-04-26T22:20:33.677Z,12.50
2019-04-26T22:24:39.642Z,12.30
2019-04-26T22:28:43.384Z,12.40
2019-04-26T22:32:48.498Z,12.50
2019-04-26T22:36:51.473Z,12.60
2019-04-26T22:40:56.100Z,12.70
2019-04-26T22:45:16.175Z,12.70
2019-04-26T22:49:19.603Z,12.70
2019-04-26T22:53:25.886Z,12.70
2019-04-26T22:57:27.712Z,12.70
2019-04-26T23:01:31.106Z,12.80
2019-04-26T23:05:37.712Z,12.80
2019-04-26T23:09:39.256Z,12.80
2019-04-26T23:13:44.627Z,12.90
2019-04-26T23:17:58.633Z,12.80
2019-04-26T23:22:04.065Z,12.60
2019-04-26T23:26:08.051Z,12.80
2019-04-26T23:30:13.039Z,12.90
2019-04-26T23:34:16.086Z,12.90
2019-04-26T23:38:19.106Z,13.00
2019-04-26T23:42:23.256Z,12.90
2019-04-26T23:46:27.136Z,12.80
2019-04-26T23:50:30.552Z,12.50
2019-04-26T23:54:35.866Z,12.60
2019-04-26T23:58:40.203Z,12.60
